Flight Track Log - Related Links

Times and Time Zones

All times are in EST time to prevent confusion due to time zone crossing. See the USC491 flight status page for this flight to view local times or setup timezone preferences in your user account.

Time Position Orientation Groundspeed Altitude Reporting Facility
EST Latitude Longitude Course Direction KTS MPH feet Rate Location/Type
Wed 10:51:39 PM 29.6353 -95.2892 344° North 91 105 500  Level Houston Center
Wed 10:52:28 PM 29.6267 -95.3094 244° Southwest 84 97 1,600 1,200 Climbing Houston Center
Wed 10:53:04 PM 29.6206 -95.3250 246° West 89 102 2,200 1,180 Climbing Houston Center
Wed 10:53:29 PM 29.6164 -95.3347 244° Southwest 86 99 2,800 787 Climbing Houston Center
Wed 10:54:05 PM 29.6114 -95.3517 251° West 89 102 3,000 295 Climbing Houston Center
Wed 10:54:30 PM 29.6156 -95.3708 284° West 139 160 3,100 295 Climbing Houston Center
Wed 10:55:06 PM 29.6203 -95.3989 281° West 131 151 3,300 984 Climbing Houston Center
Wed 10:55:31 PM 29.6236 -95.4131 285° West 130 150 4,100 1,180 Climbing Houston Center
Wed 10:56:07 PM 29.6289 -95.4308 289° West 117 135 4,500 909 Climbing Houston Center
Wed 10:56:37 PM 29.6331 -95.4481 286° West 96 110 5,100 492 Climbing Houston Center
Wed 10:57:00 PM 29.8587 -95.3584 344° North  Level FlightAware Approximate
Wed 10:57:08 PM 29.6381 -95.4636 290° West 106 122 5,000  Level Houston Center
Wed 10:57:32 PM 29.6431 -95.4878 283° West 142 163 5,100 -98 Climbing Houston Center
Wed 10:58:09 PM 29.6489 -95.5111 286° West 140 161 4,900  Descending Houston Center
Wed 10:58:33 PM 29.6536 -95.5344 283° West 159 183 5,100 98 Climbing Houston Center
Wed 10:59:10 PM 29.6592 -95.5586 285° West 152 175 5,000 -98 Descending Houston Center
Wed 10:59:34 PM 29.6642 -95.5814 284° West 156 180 5,000 -98 Level Houston Center
Wed 11:00:11 PM 29.6700 -95.6072 285° West 156 180 4,900  Descending Houston Center
Wed 11:00:34 PM 29.6750 -95.6306 284° West 157 181 5,000  Climbing Houston Center
Wed 11:01:12 PM 29.6808 -95.6561 285° West 157 181 4,900  Descending Houston Center
Wed 11:01:35 PM 29.6856 -95.6797 283° West 157 181 5,000 689 Climbing Houston Center
Wed 11:02:13 PM 29.6911 -95.7019 286° West 152 175 5,600 1,082 Climbing Houston Center
Wed 11:02:36 PM 29.6978 -95.7217 291° West 115 132 6,100 393 Climbing Houston Center
Wed 11:03:14 PM 29.7147 -95.7297 338° Northwest 135 155 6,000 -98 Descending Houston Center
Wed 11:03:37 PM 29.7392 -95.7386 342° North 163 188 6,000 98 Level Houston Center
Wed 11:04:15 PM 29.7586 -95.7447 345° North 160 184 6,100 100 Climbing Houston Center
Wed 11:04:37 PM 29.7842 -95.7500 350° North 177 204 6,100 -98 Level Houston Center
Wed 11:05:16 PM 29.8047 -95.7531 353° North 164 189 6,000 -90 Descending Houston Center
Wed 11:05:44 PM 29.8353 -95.7586 351° North 172 198 6,000 100 Level Houston Center
Wed 11:06:16 PM 29.8539 -95.7597 357° North 173 199 6,100  Climbing Houston Center
Wed 11:06:45 PM 29.8864 -95.7669 349° North 170 196 6,000 -98 Descending Houston Center
Wed 11:07:17 PM 29.9094 -95.7703 353° North 170 196 6,000 98 Level Houston Center
Wed 11:07:46 PM 29.9333 -95.7736 353° North 171 197 6,100  Climbing Houston Center
Wed 11:08:18 PM 29.9561 -95.7783 350° North 170 196 6,000  Descending Houston Center
Wed 11:08:47 PM 29.9783 -95.7853 345° North 169 194 6,100 98 Climbing Houston Center
Wed 11:09:19 PM 30.0028 -95.7889 353° North 169 194 6,100  Level Houston Center
Wed 11:09:47 PM 30.0256 -95.7967 344° North 169 194 6,100  Level Houston Center
Wed 11:10:20 PM 30.0486 -95.8017 349° North 169 194 6,100  Level Houston Center
Wed 11:10:48 PM 30.0706 -95.8083 345° North 169 194 6,100 -98 Level Houston Center
Wed 11:11:21 PM 30.0939 -95.8142 348° North 168 193 6,000  Descending Houston Center
Wed 11:11:55 PM 30.1242 -95.8189 352° North 172 198 6,100  Climbing Houston Center
Wed 11:12:22 PM 30.1414 -95.8228 349° North 170 196 6,000 -109 Descending Houston Center
Wed 11:12:50 PM 30.1669 -95.8286 349° North 169 194 6,000  Level Houston Center
Wed 11:13:22 PM 30.1875 -95.8303 356° North 168 193 6,000  Level Houston Center
Wed 11:13:51 PM 30.2139 -95.8375 347° North 170 196 6,000 98 Level Houston Center
Wed 11:14:23 PM 30.2347 -95.8397 355° North 170 196 6,100 100 Climbing Houston Center
Wed 11:14:51 PM 30.2628 -95.8439 353° North 170 196 6,100  Level Houston Center
Wed 11:15:24 PM 30.2814 -95.8469 352° North 170 196 6,100  Level Houston Center
Wed 11:15:46 PM 30.3031 -95.8514 350° North 169 194 6,100  Level Houston Center
Wed 11:16:25 PM 30.3292 -95.8531 357° North 173 199 6,100 -90 Level Houston Center
Wed 11:16:53 PM 30.3561 -95.8572 352° North 172 198 6,000 -98 Descending Houston Center
Wed 11:17:26 PM 30.3767 -95.8578 359° North 173 199 6,000  Level Houston Center
Wed 11:17:54 PM 30.4047 -95.8614 354° North 171 197 6,000  Level Houston Center
Wed 11:18:27 PM 30.4256 -95.8625 357° North 174 200 6,000 105 Level Houston Center
Wed 11:18:51 PM 30.4492 -95.8658 353° North 172 198 6,100 100 Climbing Houston Center
Wed 11:19:27 PM 30.4717 -95.8678 356° North 169 194 6,100  Level Houston Center
Wed 11:19:55 PM 30.5003 -95.8719 353° North 171 197 6,100 -98 Level Houston Center
Wed 11:20:28 PM 30.5197 -95.8722 359° North 172 198 6,000  Descending Houston Center
Wed 11:20:50 PM 30.5444 -95.8742 356° North 171 197 6,100  Climbing Houston Center
Wed 11:21:29 PM 30.5669 -95.8778 352° North 171 197 6,000 -98 Descending Houston Center
Wed 11:21:51 PM 30.5933 -95.8806 355° North 171 197 6,000 98 Level Houston Center
Wed 11:22:30 PM 30.6233 -95.8833 355° North 168 193 6,100  Climbing Houston Center
Wed 11:23:30 PM 30.6714 -95.8886 355° North 172 198 6,000 -50 Descending Houston Center
Wed 11:24:31 PM 30.7172 -95.8939 354° North 174 200 6,000 49 Level Houston Center
Wed 11:25:32 PM 30.7647 -95.8997 354° North 172 198 6,100 49 Climbing Houston Center
Wed 11:26:33 PM 30.8125 -95.9061 353° North 173 199 6,100  Level Houston Center
Wed 11:27:33 PM 30.8606 -95.9106 355° North 174 200 6,100  Level Houston Center
Wed 11:28:34 PM 30.9092 -95.9144 356° North 175 201 6,100  Level Houston Center
Wed 11:29:35 PM 30.9567 -95.9208 353° North 172 198 6,100  Level Houston Center
Wed 11:30:35 PM 31.0033 -95.9314 349° North 172 198 6,100 -50 Level Houston Center
Wed 11:31:36 PM 31.0486 -95.9444 346° North 170 196 6,000  Descending Houston Center
Wed 11:32:36 PM 31.0933 -95.9614 342° North 170 196 6,100  Climbing Houston Center
Wed 11:33:37 PM 31.1383 -95.9750 345° North 167 192 6,000 -49 Descending Houston Center
Wed 11:34:38 PM 31.1867 -95.9814 354° North 172 198 6,000 50 Level Houston Center
Wed 11:35:38 PM 31.2342 -95.9908 350° North 173 199 6,100  Climbing Houston Center
Wed 11:36:39 PM 31.2797 -96.0017 349° North 169 194 6,000  Descending Houston Center
Wed 11:37:39 PM 31.3272 -96.0133 348° North 172 198 6,100 50 Climbing Houston Center
Wed 11:38:40 PM 31.3731 -96.0239 349° North 169 194 6,100  Level Houston Center
Wed 11:39:40 PM 31.4283 -96.0347 351° North 168 193 6,100 -50 Level Houston Center
Wed 11:40:41 PM 31.4742 -96.0439 350° North 168 193 6,000 -50 Descending Houston Center
Wed 11:41:41 PM 31.5214 -96.0508 353° North 169 194 6,000 50 Level Houston Center
Wed 11:42:42 PM 31.5686 -96.0581 353° North 170 196 6,100  Climbing Houston Center
Wed 11:43:42 PM 31.6150 -96.0669 351° North 169 194 6,000  Descending Houston Center
Wed 11:44:43 PM 31.6603 -96.0742 352° North 167 192 6,100  Climbing Houston Center
Wed 11:45:46 PM 31.7061 -96.0822 351° North 163 188 6,000 -97 Descending Fort Worth Center
Wed 11:46:47 PM 31.7514 -96.0897 352° North 164 189 5,900  Descending Fort Worth Center
Wed 11:47:48 PM 31.7972 -96.1006 349° North 165 190 6,000 49 Climbing Fort Worth Center
Wed 11:48:49 PM 31.8428 -96.1114 349° North 165 190 6,000  Level Fort Worth Center
Wed 11:49:49 PM 31.8878 -96.1258 345° North 167 192 6,000 -50 Level Fort Worth Center
Wed 11:50:50 PM 31.9317 -96.1419 343° North 165 190 5,900  Descending Fort Worth Center
Wed 11:51:51 PM 31.9772 -96.1556 346° North 165 190 6,000  Climbing Fort Worth Center
Wed 11:52:52 PM 32.0206 -96.1714 343° North 164 189 5,900  Descending Fort Worth Center
Wed 11:53:52 PM 32.0669 -96.1819 349° North 169 194 6,000 50 Climbing Fort Worth Center
Wed 11:54:53 PM 32.1119 -96.1961 345° North 168 193 6,000  Level Fort Worth Center
Wed 11:55:54 PM 32.1572 -96.2078 348° North 168 193 6,000  Level Fort Worth Center
Wed 11:56:54 PM 32.2031 -96.2242 343° North 170 196 6,000 50 Level Fort Worth Center
Wed 11:57:55 PM 32.2497 -96.2492 336° Northwest 168 193 6,100 49 Climbing Fort Worth Center
Wed 11:58:56 PM 32.2889 -96.2794 327° Northwest 167 192 6,100 -50 Level Fort Worth Center
Wed 11:59:56 PM 32.3278 -96.3117 325° Northwest 170 196 6,000 -99 Descending Fort Worth Center
Thu 12:00:57 AM 32.3692 -96.3425 328° Northwest 176 203 5,900 -50 Descending Fort Worth Center
Thu 12:01:57 AM 32.4150 -96.3708 332° Northwest 173 199 5,900 50 Level Fort Worth Center
Thu 12:02:58 AM 32.4589 -96.3964 334° Northwest 175 201 6,000 50 Climbing Fort Worth Center
Thu 12:03:58 AM 32.5025 -96.4219 334° Northwest 175 201 6,000 -50 Level Fort Worth Center
Thu 12:04:59 AM 32.5439 -96.4508 330° Northwest 173 199 5,900  Descending Fort Worth Center
Thu 12:06:00 AM 32.5833 -96.4811 327° Northwest 169 194 6,000 -298 Climbing Fort Worth Center
Thu 12:07:00 AM 32.6239 -96.5150 325° Northwest 177 204 5,300 -694 Descending Fort Worth Center
Thu 12:08:01 AM 32.6653 -96.5542 321° Northwest 188 216 4,600 -744 Descending Fort Worth Center
Thu 12:09:01 AM 32.7069 -96.5939 321° Northwest 191 220 3,800 -744 Descending Fort Worth Center
Thu 12:10:02 AM 32.7472 -96.6339 320° Northwest 189 217 3,100 -397 Descending Fort Worth Center
Thu 12:11:02 AM 32.7875 -96.6711 322° Northwest 183 211 3,000 -99 Descending Fort Worth Center
Thu 12:12:03 AM 32.8253 -96.7064 322° Northwest 173 199 2,900 -298 Descending Fort Worth Center
Thu 12:13:03 AM 32.8656 -96.7414 324° Northwest 178 205 2,400 -545 Descending Fort Worth Center
Thu 12:14:04 AM 32.9097 -96.7744 328° Northwest 173 199 1,800 -397 Descending Fort Worth Center
Thu 12:15:04 AM 32.9325 -96.8117 306° West 149 171 1,600 -496 Descending Fort Worth Center
Thu 12:16:05 AM 32.9547 -96.8300 325° Northwest 104 120 800 -492 Descending Fort Worth Center
Thu 12:17:06 AM 32.9706 -96.8372 339° North 97 112 600 -197 Descending Fort Worth Center

Login

Don't have an account? Register now (free) for customized features, flight alerts, and more!